sensor_id;sensor_type;location;lat;lon;timestamp;P1;durP1;ratioP1;P2;durP2;ratioP2
46054;SDS011;31788;6.954;-71.872;2023-05-16T00:01:20;5.35;;;2.60;;
46054;SDS011;31788;6.954;-71.872;2023-05-16T00:03:47;7.03;;;2.78;;
46054;SDS011;31788;6.954;-71.872;2023-05-16T00:06:14;4.13;;;2.70;;
46054;SDS011;31788;6.954;-71.872;2023-05-16T00:08:41;6.45;;;4.30;;
46054;SDS011;31788;6.954;-71.872;2023-05-16T00:11:07;7.80;;;4.18;;
46054;SDS011;31788;6.954;-71.872;2023-05-16T00:13:34;8.57;;;4.20;;
46054;SDS011;31788;6.954;-71.872;2023-05-16T00:16:02;15.55;;;8.95;;
46054;SDS011;31788;6.954;-71.872;2023-05-16T00:18:29;10.23;;;4.70;;
46054;SDS011;31788;6.954;-71.872;2023-05-16T00:20:55;7.25;;;3.72;;
46054;SDS011;31788;6.954;-71.872;2023-05-16T00:23:22;6.50;;;3.60;;
46054;SDS011;31788;6.954;-71.872;2023-05-16T00:25:49;4.60;;;3.30;;
46054;SDS011;31788;6.954;-71.872;2023-05-16T00:28:17;7.97;;;3.42;;
46054;SDS011;31788;6.954;-71.872;2023-05-16T00:30:43;6.70;;;2.65;;
46054;SDS011;31788;6.954;-71.872;2023-05-16T00:33:10;8.65;;;3.00;;
46054;SDS011;31788;6.954;-71.872;2023-05-16T00:35:36;5.60;;;2.90;;
46054;SDS011;31788;6.954;-71.872;2023-05-16T00:38:03;8.02;;;2.78;;
46054;SDS011;31788;6.954;-71.872;2023-05-16T00:40:30;5.32;;;3.05;;
46054;SDS011;31788;6.954;-71.872;2023-05-16T00:42:57;6.03;;;2.92;;
46054;SDS011;31788;6.954;-71.872;2023-05-16T00:45:24;4.93;;;2.93;;
46054;SDS011;31788;6.954;-71.872;2023-05-16T00:47:50;5.07;;;2.70;;
46054;SDS011;31788;6.954;-71.872;2023-05-16T00:50:17;3.90;;;2.50;;
46054;SDS011;31788;6.954;-71.872;2023-05-16T00:52:44;5.72;;;2.75;;
46054;SDS011;31788;6.954;-71.872;2023-05-16T00:55:11;12.82;;;11.52;;
46054;SDS011;31788;6.954;-71.872;2023-05-16T00:57:38;9.30;;;8.32;;
46054;SDS011;31788;6.954;-71.872;2023-05-16T01:00:08;6.70;;;5.13;;
46054;SDS011;31788;6.954;-71.872;2023-05-16T01:02:36;4.70;;;3.30;;
46054;SDS011;31788;6.954;-71.872;2023-05-16T01:05:04;3.15;;;2.50;;
46054;SDS011;31788;6.954;-71.872;2023-05-16T01:07:34;4.40;;;2.40;;
46054;SDS011;31788;6.954;-71.872;2023-05-16T01:10:01;45.65;;;38.22;;
46054;SDS011;31788;6.954;-71.872;2023-05-16T01:15:14;15.27;;;12.05;;
46054;SDS011;31788;6.954;-71.872;2023-05-16T01:17:55;9.85;;;5.57;;
46054;SDS011;31788;6.954;-71.872;2023-05-16T01:20:59;6.05;;;3.65;;
46054;SDS011;31788;6.954;-71.872;2023-05-16T01:28:51;4.35;;;2.25;;
46054;SDS011;31788;6.954;-71.872;2023-05-16T01:31:21;4.60;;;1.92;;
46054;SDS011;31788;6.954;-71.872;2023-05-16T01:33:49;4.35;;;1.90;;
46054;SDS011;31788;6.954;-71.872;2023-05-16T01:36:29;4.75;;;1.75;;
46054;SDS011;31788;6.954;-71.872;2023-05-16T01:39:16;4.95;;;1.67;;
46054;SDS011;31788;6.954;-71.872;2023-05-16T01:42:04;6.13;;;1.80;;
46054;SDS011;31788;6.954;-71.872;2023-05-16T01:45:07;5.93;;;2.10;;
46054;SDS011;31788;6.954;-71.872;2023-05-16T01:47:54;14.60;;;2.90;;
46054;SDS011;31788;6.954;-71.872;2023-05-16T01:50:47;7.30;;;2.05;;
46054;SDS011;31788;6.954;-71.872;2023-05-16T01:53:19;4.97;;;1.90;;
46054;SDS011;31788;6.954;-71.872;2023-05-16T01:55:51;7.53;;;1.90;;
46054;SDS011;31788;6.954;-71.872;2023-05-16T01:58:24;4.47;;;1.70;;
46054;SDS011;31788;6.954;-71.872;2023-05-16T02:01:02;5.53;;;2.00;;
46054;SDS011;31788;6.954;-71.872;2023-05-16T02:03:30;5.25;;;1.40;;
46054;SDS011;31788;6.954;-71.872;2023-05-16T02:05:57;4.73;;;1.50;;
46054;SDS011;31788;6.954;-71.872;2023-05-16T02:08:24;5.53;;;1.52;;
46054;SDS011;31788;6.954;-71.872;2023-05-16T02:10:51;3.85;;;1.30;;
46054;SDS011;31788;6.954;-71.872;2023-05-16T02:13:18;4.10;;;1.40;;
46054;SDS011;31788;6.954;-71.872;2023-05-16T02:15:45;3.70;;;1.50;;
46054;SDS011;31788;6.954;-71.872;2023-05-16T02:18:11;3.42;;;1.27;;
46054;SDS011;31788;6.954;-71.872;2023-05-16T02:20:38;2.70;;;1.00;;
46054;SDS011;31788;6.954;-71.872;2023-05-16T02:23:05;2.13;;;0.95;;
46054;SDS011;31788;6.954;-71.872;2023-05-16T02:25:31;2.85;;;1.00;;
46054;SDS011;31788;6.954;-71.872;2023-05-16T02:27:58;3.22;;;1.17;;
46054;SDS011;31788;6.954;-71.872;2023-05-16T02:30:25;3.60;;;1.20;;
46054;SDS011;31788;6.954;-71.872;2023-05-16T02:32:51;6.50;;;1.30;;
46054;SDS011;31788;6.954;-71.872;2023-05-16T02:35:18;4.10;;;1.27;;
46054;SDS011;31788;6.954;-71.872;2023-05-16T02:37:45;3.37;;;1.10;;
46054;SDS011;31788;6.954;-71.872;2023-05-16T02:40:12;8.68;;;1.58;;
46054;SDS011;31788;6.954;-71.872;2023-05-16T02:42:39;5.00;;;1.48;;
46054;SDS011;31788;6.954;-71.872;2023-05-16T02:45:06;5.50;;;1.30;;
46054;SDS011;31788;6.954;-71.872;2023-05-16T02:47:33;6.83;;;1.80;;
46054;SDS011;31788;6.954;-71.872;2023-05-16T02:50:00;5.97;;;1.25;;
46054;SDS011;31788;6.954;-71.872;2023-05-16T02:52:26;6.43;;;1.23;;
46054;SDS011;31788;6.954;-71.872;2023-05-16T02:54:53;5.65;;;1.30;;
46054;SDS011;31788;6.954;-71.872;2023-05-16T02:57:20;8.37;;;1.70;;
46054;SDS011;31788;6.954;-71.872;2023-05-16T02:59:46;12.15;;;1.90;;
46054;SDS011;31788;6.954;-71.872;2023-05-16T03:02:13;6.57;;;1.70;;
46054;SDS011;31788;6.954;-71.872;2023-05-16T03:04:39;7.72;;;1.95;;
46054;SDS011;31788;6.954;-71.872;2023-05-16T03:07:06;8.55;;;1.60;;
46054;SDS011;31788;6.954;-71.872;2023-05-16T03:09:33;6.90;;;1.98;;
46054;SDS011;31788;6.954;-71.872;2023-05-16T03:11:59;10.95;;;2.38;;
46054;SDS011;31788;6.954;-71.872;2023-05-16T03:14:26;14.48;;;2.70;;
46054;SDS011;31788;6.954;-71.872;2023-05-16T03:16:52;21.77;;;3.10;;
46054;SDS011;31788;6.954;-71.872;2023-05-16T03:19:19;47.67;;;29.00;;
46054;SDS011;31788;6.954;-71.872;2023-05-16T03:21:46;17.83;;;6.20;;
46054;SDS011;31788;6.954;-71.872;2023-05-16T03:24:12;19.98;;;4.90;;
46054;SDS011;31788;6.954;-71.872;2023-05-16T03:26:39;13.43;;;4.35;;
46054;SDS011;31788;6.954;-71.872;2023-05-16T03:29:06;19.25;;;4.68;;
46054;SDS011;31788;6.954;-71.872;2023-05-16T03:31:33;16.38;;;4.60;;
46054;SDS011;31788;6.954;-71.872;2023-05-16T03:34:00;17.58;;;3.95;;
46054;SDS011;31788;6.954;-71.872;2023-05-16T03:36:26;18.33;;;4.10;;
46054;SDS011;31788;6.954;-71.872;2023-05-16T03:38:53;12.10;;;3.30;;
46054;SDS011;31788;6.954;-71.872;2023-05-16T03:41:20;7.20;;;2.60;;
46054;SDS011;31788;6.954;-71.872;2023-05-16T03:43:47;13.10;;;3.10;;
46054;SDS011;31788;6.954;-71.872;2023-05-16T03:46:13;9.32;;;2.90;;
46054;SDS011;31788;6.954;-71.872;2023-05-16T03:48:40;13.25;;;2.90;;
46054;SDS011;31788;6.954;-71.872;2023-05-16T03:51:07;9.00;;;3.33;;
46054;SDS011;31788;6.954;-71.872;2023-05-16T03:53:34;8.38;;;2.70;;
46054;SDS011;31788;6.954;-71.872;2023-05-16T03:56:01;6.05;;;2.75;;
46054;SDS011;31788;6.954;-71.872;2023-05-16T03:58:29;11.23;;;2.70;;
46054;SDS011;31788;6.954;-71.872;2023-05-16T04:00:55;11.77;;;2.97;;
46054;SDS011;31788;6.954;-71.872;2023-05-16T04:03:22;13.95;;;4.22;;
46054;SDS011;31788;6.954;-71.872;2023-05-16T04:05:56;6.85;;;3.60;;
46054;SDS011;31788;6.954;-71.872;2023-05-16T04:08:24;7.95;;;2.95;;
46054;SDS011;31788;6.954;-71.872;2023-05-16T04:10:51;7.65;;;2.50;;
46054;SDS011;31788;6.954;-71.872;2023-05-16T04:13:17;4.13;;;2.05;;
46054;SDS011;31788;6.954;-71.872;2023-05-16T04:15:44;7.53;;;2.38;;
46054;SDS011;31788;6.954;-71.872;2023-05-16T04:18:11;5.45;;;2.35;;
46054;SDS011;31788;6.954;-71.872;2023-05-16T04:20:38;6.30;;;2.40;;
46054;SDS011;31788;6.954;-71.872;2023-05-16T04:23:06;6.97;;;2.33;;
46054;SDS011;31788;6.954;-71.872;2023-05-16T04:25:36;3.70;;;2.00;;
46054;SDS011;31788;6.954;-71.872;2023-05-16T04:28:03;5.85;;;2.05;;
46054;SDS011;31788;6.954;-71.872;2023-05-16T04:30:30;4.35;;;2.00;;
46054;SDS011;31788;6.954;-71.872;2023-05-16T04:32:56;6.18;;;2.20;;
46054;SDS011;31788;6.954;-71.872;2023-05-16T04:35:24;5.78;;;2.10;;
46054;SDS011;31788;6.954;-71.872;2023-05-16T04:37:52;4.28;;;2.05;;
46054;SDS011;31788;6.954;-71.872;2023-05-16T04:40:19;4.47;;;1.73;;
46054;SDS011;31788;6.954;-71.872;2023-05-16T04:42:45;6.25;;;1.88;;
46054;SDS011;31788;6.954;-71.872;2023-05-16T04:45:12;7.18;;;1.80;;
46054;SDS011;31788;6.954;-71.872;2023-05-16T04:47:39;2.33;;;1.25;;
46054;SDS011;31788;6.954;-71.872;2023-05-16T04:50:06;3.87;;;1.60;;
46054;SDS011;31788;6.954;-71.872;2023-05-16T04:52:33;2.72;;;1.08;;
46054;SDS011;31788;6.954;-71.872;2023-05-16T04:55:00;4.10;;;1.30;;
46054;SDS011;31788;6.954;-71.872;2023-05-16T04:57:28;1.77;;;1.17;;
46054;SDS011;31788;6.954;-71.872;2023-05-16T04:59:54;2.13;;;1.05;;
46054;SDS011;31788;6.954;-71.872;2023-05-16T05:02:21;4.03;;;1.05;;
46054;SDS011;31788;6.954;-71.872;2023-05-16T05:04:48;2.78;;;1.10;;
46054;SDS011;31788;6.954;-71.872;2023-05-16T05:07:15;2.15;;;1.20;;
46054;SDS011;31788;6.954;-71.872;2023-05-16T05:09:43;2.38;;;0.90;;
46054;SDS011;31788;6.954;-71.872;2023-05-16T05:12:10;2.72;;;0.90;;
46054;SDS011;31788;6.954;-71.872;2023-05-16T05:14:37;5.40;;;0.80;;
46054;SDS011;31788;6.954;-71.872;2023-05-16T05:17:04;4.15;;;0.90;;
46054;SDS011;31788;6.954;-71.872;2023-05-16T05:19:31;2.65;;;1.00;;
46054;SDS011;31788;6.954;-71.872;2023-05-16T05:21:58;4.93;;;1.00;;
46054;SDS011;31788;6.954;-71.872;2023-05-16T05:24:25;3.50;;;0.70;;
46054;SDS011;31788;6.954;-71.872;2023-05-16T05:26:52;3.85;;;1.05;;
46054;SDS011;31788;6.954;-71.872;2023-05-16T05:29:19;4.53;;;1.17;;
46054;SDS011;31788;6.954;-71.872;2023-05-16T05:31:46;3.47;;;0.82;;
46054;SDS011;31788;6.954;-71.872;2023-05-16T05:34:13;4.60;;;1.10;;
46054;SDS011;31788;6.954;-71.872;2023-05-16T05:36:39;3.20;;;0.90;;
46054;SDS011;31788;6.954;-71.872;2023-05-16T05:39:06;3.15;;;0.90;;
46054;SDS011;31788;6.954;-71.872;2023-05-16T05:41:32;4.22;;;1.13;;
46054;SDS011;31788;6.954;-71.872;2023-05-16T05:44:00;1.80;;;1.00;;
46054;SDS011;31788;6.954;-71.872;2023-05-16T05:46:26;2.78;;;0.80;;
46054;SDS011;31788;6.954;-71.872;2023-05-16T05:48:53;3.33;;;0.90;;
46054;SDS011;31788;6.954;-71.872;2023-05-16T05:51:20;2.90;;;1.00;;
46054;SDS011;31788;6.954;-71.872;2023-05-16T05:53:47;5.17;;;1.10;;
46054;SDS011;31788;6.954;-71.872;2023-05-16T05:56:14;6.07;;;0.93;;
46054;SDS011;31788;6.954;-71.872;2023-05-16T05:58:41;3.38;;;0.90;;
46054;SDS011;31788;6.954;-71.872;2023-05-16T06:01:09;5.82;;;0.98;;
46054;SDS011;31788;6.954;-71.872;2023-05-16T06:03:36;5.15;;;1.40;;
46054;SDS011;31788;6.954;-71.872;2023-05-16T06:06:03;1.87;;;0.80;;
46054;SDS011;31788;6.954;-71.872;2023-05-16T06:08:30;2.78;;;0.80;;
46054;SDS011;31788;6.954;-71.872;2023-05-16T06:10:56;5.40;;;1.00;;
46054;SDS011;31788;6.954;-71.872;2023-05-16T06:13:24;4.38;;;0.90;;
46054;SDS011;31788;6.954;-71.872;2023-05-16T06:15:51;2.10;;;0.70;;
46054;SDS011;31788;6.954;-71.872;2023-05-16T06:18:19;2.17;;;0.73;;
46054;SDS011;31788;6.954;-71.872;2023-05-16T06:20:46;1.15;;;0.70;;
46054;SDS011;31788;6.954;-71.872;2023-05-16T06:23:13;4.80;;;1.10;;
46054;SDS011;31788;6.954;-71.872;2023-05-16T06:25:39;2.25;;;0.88;;
46054;SDS011;31788;6.954;-71.872;2023-05-16T06:28:06;3.97;;;0.90;;
46054;SDS011;31788;6.954;-71.872;2023-05-16T06:30:32;2.15;;;0.90;;
46054;SDS011;31788;6.954;-71.872;2023-05-16T06:32:59;2.10;;;0.80;;
46054;SDS011;31788;6.954;-71.872;2023-05-16T06:35:26;3.58;;;1.10;;
46054;SDS011;31788;6.954;-71.872;2023-05-16T06:37:52;5.35;;;1.00;;
46054;SDS011;31788;6.954;-71.872;2023-05-16T06:40:19;3.00;;;0.90;;
46054;SDS011;31788;6.954;-71.872;2023-05-16T06:42:46;2.30;;;1.08;;
46054;SDS011;31788;6.954;-71.872;2023-05-16T06:45:12;3.67;;;0.70;;
46054;SDS011;31788;6.954;-71.872;2023-05-16T06:47:39;2.75;;;0.90;;
46054;SDS011;31788;6.954;-71.872;2023-05-16T06:50:06;4.78;;;0.82;;
46054;SDS011;31788;6.954;-71.872;2023-05-16T06:52:34;1.52;;;0.70;;
46054;SDS011;31788;6.954;-71.872;2023-05-16T06:55:01;3.33;;;0.80;;
46054;SDS011;31788;6.954;-71.872;2023-05-16T06:57:28;3.30;;;0.80;;
46054;SDS011;31788;6.954;-71.872;2023-05-16T06:59:54;6.88;;;1.10;;
46054;SDS011;31788;6.954;-71.872;2023-05-16T07:02:21;4.65;;;0.98;;
46054;SDS011;31788;6.954;-71.872;2023-05-16T07:04:48;2.03;;;0.80;;
46054;SDS011;31788;6.954;-71.872;2023-05-16T07:07:14;2.83;;;0.90;;
46054;SDS011;31788;6.954;-71.872;2023-05-16T07:09:41;3.95;;;0.82;;
46054;SDS011;31788;6.954;-71.872;2023-05-16T07:12:08;5.75;;;1.60;;
46054;SDS011;31788;6.954;-71.872;2023-05-16T07:14:35;7.40;;;2.33;;
46054;SDS011;31788;6.954;-71.872;2023-05-16T07:17:01;5.40;;;2.15;;
46054;SDS011;31788;6.954;-71.872;2023-05-16T07:19:28;3.28;;;1.20;;
46054;SDS011;31788;6.954;-71.872;2023-05-16T07:21:55;3.80;;;1.33;;
46054;SDS011;31788;6.954;-71.872;2023-05-16T07:24:21;4.95;;;1.00;;
46054;SDS011;31788;6.954;-71.872;2023-05-16T07:26:48;3.25;;;0.90;;
46054;SDS011;31788;6.954;-71.872;2023-05-16T07:29:16;3.58;;;1.00;;
46054;SDS011;31788;6.954;-71.872;2023-05-16T07:31:42;6.80;;;1.23;;
46054;SDS011;31788;6.954;-71.872;2023-05-16T07:34:10;1.25;;;0.90;;
46054;SDS011;31788;6.954;-71.872;2023-05-16T07:36:36;3.08;;;0.93;;
46054;SDS011;31788;6.954;-71.872;2023-05-16T07:39:03;3.00;;;0.80;;
46054;SDS011;31788;6.954;-71.872;2023-05-16T07:41:30;4.70;;;0.85;;
46054;SDS011;31788;6.954;-71.872;2023-05-16T07:43:57;3.22;;;1.20;;
46054;SDS011;31788;6.954;-71.872;2023-05-16T07:46:23;3.95;;;1.30;;
46054;SDS011;31788;6.954;-71.872;2023-05-16T07:48:50;5.03;;;1.05;;
46054;SDS011;31788;6.954;-71.872;2023-05-16T07:51:17;3.00;;;0.88;;
46054;SDS011;31788;6.954;-71.872;2023-05-16T07:53:43;2.55;;;0.90;;
46054;SDS011;31788;6.954;-71.872;2023-05-16T07:56:10;4.90;;;0.90;;
46054;SDS011;31788;6.954;-71.872;2023-05-16T07:58:37;3.83;;;0.80;;
46054;SDS011;31788;6.954;-71.872;2023-05-16T08:01:05;1.33;;;0.80;;
46054;SDS011;31788;6.954;-71.872;2023-05-16T08:03:32;7.13;;;1.10;;
46054;SDS011;31788;6.954;-71.872;2023-05-16T08:05:59;1.83;;;0.87;;
46054;SDS011;31788;6.954;-71.872;2023-05-16T08:08:26;2.75;;;0.93;;
46054;SDS011;31788;6.954;-71.872;2023-05-16T08:10:53;3.58;;;0.90;;
46054;SDS011;31788;6.954;-71.872;2023-05-16T08:13:19;3.97;;;0.80;;
46054;SDS011;31788;6.954;-71.872;2023-05-16T08:15:46;3.20;;;0.65;;
46054;SDS011;31788;6.954;-71.872;2023-05-16T08:18:13;4.57;;;1.20;;
46054;SDS011;31788;6.954;-71.872;2023-05-16T08:20:40;2.40;;;0.77;;
46054;SDS011;31788;6.954;-71.872;2023-05-16T08:23:07;2.78;;;1.00;;
46054;SDS011;31788;6.954;-71.872;2023-05-16T08:25:34;3.20;;;1.02;;
46054;SDS011;31788;6.954;-71.872;2023-05-16T08:28:01;4.13;;;1.30;;
46054;SDS011;31788;6.954;-71.872;2023-05-16T08:30:27;7.53;;;1.75;;
46054;SDS011;31788;6.954;-71.872;2023-05-16T08:32:54;5.32;;;2.15;;
46054;SDS011;31788;6.954;-71.872;2023-05-16T08:35:21;4.68;;;1.30;;
46054;SDS011;31788;6.954;-71.872;2023-05-16T08:37:48;4.80;;;1.00;;
46054;SDS011;31788;6.954;-71.872;2023-05-16T08:40:14;2.65;;;1.02;;
46054;SDS011;31788;6.954;-71.872;2023-05-16T08:42:41;2.85;;;0.90;;
46054;SDS011;31788;6.954;-71.872;2023-05-16T08:45:08;3.22;;;0.90;;
46054;SDS011;31788;6.954;-71.872;2023-05-16T08:47:35;3.47;;;0.90;;
46054;SDS011;31788;6.954;-71.872;2023-05-16T08:50:07;3.78;;;0.90;;
46054;SDS011;31788;6.954;-71.872;2023-05-16T08:52:34;2.20;;;0.88;;
46054;SDS011;31788;6.954;-71.872;2023-05-16T08:55:05;3.47;;;0.90;;
46054;SDS011;31788;6.954;-71.872;2023-05-16T08:57:34;2.53;;;1.05;;
46054;SDS011;31788;6.954;-71.872;2023-05-16T09:00:01;3.45;;;0.90;;
46054;SDS011;31788;6.954;-71.872;2023-05-16T09:02:32;3.53;;;0.97;;
46054;SDS011;31788;6.954;-71.872;2023-05-16T09:04:58;3.45;;;0.93;;
46054;SDS011;31788;6.954;-71.872;2023-05-16T09:07:26;4.03;;;1.00;;
46054;SDS011;31788;6.954;-71.872;2023-05-16T09:09:52;4.00;;;1.00;;
46054;SDS011;31788;6.954;-71.872;2023-05-16T09:12:19;5.65;;;0.95;;
46054;SDS011;31788;6.954;-71.872;2023-05-16T09:14:46;2.55;;;0.80;;
46054;SDS011;31788;6.954;-71.872;2023-05-16T09:17:13;1.73;;;0.90;;
46054;SDS011;31788;6.954;-71.872;2023-05-16T09:19:41;3.85;;;0.90;;
46054;SDS011;31788;6.954;-71.872;2023-05-16T09:22:12;1.50;;;0.90;;
46054;SDS011;31788;6.954;-71.872;2023-05-16T09:24:40;2.63;;;0.90;;
46054;SDS011;31788;6.954;-71.872;2023-05-16T09:27:08;3.63;;;0.82;;
46054;SDS011;31788;6.954;-71.872;2023-05-16T09:29:40;4.00;;;1.00;;
46054;SDS011;31788;6.954;-71.872;2023-05-16T09:32:14;2.35;;;0.93;;
46054;SDS011;31788;6.954;-71.872;2023-05-16T09:34:45;2.35;;;0.90;;
46054;SDS011;31788;6.954;-71.872;2023-05-16T09:37:17;1.75;;;1.17;;
46054;SDS011;31788;6.954;-71.872;2023-05-16T09:39:47;4.68;;;1.00;;
46054;SDS011;31788;6.954;-71.872;2023-05-16T09:42:16;3.60;;;0.88;;
46054;SDS011;31788;6.954;-71.872;2023-05-16T09:44:51;2.67;;;0.90;;
46054;SDS011;31788;6.954;-71.872;2023-05-16T09:47:19;3.67;;;0.90;;
46054;SDS011;31788;6.954;-71.872;2023-05-16T09:49:50;2.03;;;1.00;;
46054;SDS011;31788;6.954;-71.872;2023-05-16T09:52:18;4.35;;;1.08;;
46054;SDS011;31788;6.954;-71.872;2023-05-16T09:54:45;3.58;;;1.35;;
46054;SDS011;31788;6.954;-71.872;2023-05-16T09:57:18;2.83;;;1.60;;
46054;SDS011;31788;6.954;-71.872;2023-05-16T09:59:46;4.75;;;2.50;;
46054;SDS011;31788;6.954;-71.872;2023-05-16T10:02:13;5.85;;;2.40;;
46054;SDS011;31788;6.954;-71.872;2023-05-16T10:04:39;3.20;;;1.97;;
46054;SDS011;31788;6.954;-71.872;2023-05-16T10:07:06;4.38;;;1.63;;
46054;SDS011;31788;6.954;-71.872;2023-05-16T10:09:34;4.90;;;1.40;;
46054;SDS011;31788;6.954;-71.872;2023-05-16T10:12:03;5.50;;;1.50;;
46054;SDS011;31788;6.954;-71.872;2023-05-16T10:14:33;3.85;;;1.38;;
46054;SDS011;31788;6.954;-71.872;2023-05-16T10:17:05;6.13;;;1.50;;
46054;SDS011;31788;6.954;-71.872;2023-05-16T10:19:34;3.17;;;1.37;;
46054;SDS011;31788;6.954;-71.872;2023-05-16T10:22:04;3.85;;;1.55;;
46054;SDS011;31788;6.954;-71.872;2023-05-16T10:24:42;4.20;;;1.20;;
46054;SDS011;31788;6.954;-71.872;2023-05-16T10:27:32;3.85;;;1.30;;
46054;SDS011;31788;6.954;-71.872;2023-05-16T10:29:59;5.00;;;1.53;;
46054;SDS011;31788;6.954;-71.872;2023-05-16T10:32:27;6.50;;;2.30;;
46054;SDS011;31788;6.954;-71.872;2023-05-16T10:34:54;3.95;;;1.70;;
46054;SDS011;31788;6.954;-71.872;2023-05-16T10:37:22;3.30;;;1.43;;
46054;SDS011;31788;6.954;-71.872;2023-05-16T10:39:50;4.70;;;1.40;;
46054;SDS011;31788;6.954;-71.872;2023-05-16T10:42:17;5.88;;;1.60;;
46054;SDS011;31788;6.954;-71.872;2023-05-16T10:44:44;3.53;;;1.40;;
46054;SDS011;31788;6.954;-71.872;2023-05-16T10:47:11;4.70;;;1.50;;
46054;SDS011;31788;6.954;-71.872;2023-05-16T10:49:43;3.42;;;1.40;;
46054;SDS011;31788;6.954;-71.872;2023-05-16T10:52:10;5.70;;;1.50;;
46054;SDS011;31788;6.954;-71.872;2023-05-16T10:54:43;5.13;;;1.88;;
46054;SDS011;31788;6.954;-71.872;2023-05-16T10:57:22;3.37;;;1.77;;
46054;SDS011;31788;6.954;-71.872;2023-05-16T10:59:50;9.73;;;4.90;;
46054;SDS011;31788;6.954;-71.872;2023-05-16T11:04:58;17.65;;;8.35;;
46054;SDS011;31788;6.954;-71.872;2023-05-16T11:07:34;24.27;;;12.32;;
46054;SDS011;31788;6.954;-71.872;2023-05-16T11:12:50;19.98;;;9.80;;
46054;SDS011;31788;6.954;-71.872;2023-05-16T11:15:19;37.42;;;18.98;;
46054;SDS011;31788;6.954;-71.872;2023-05-16T11:17:47;47.88;;;25.20;;
46054;SDS011;31788;6.954;-71.872;2023-05-16T11:20:26;45.00;;;24.02;;
46054;SDS011;31788;6.954;-71.872;2023-05-16T11:25:42;23.08;;;12.52;;
46054;SDS011;31788;6.954;-71.872;2023-05-16T11:28:11;12.65;;;6.45;;
46054;SDS011;31788;6.954;-71.872;2023-05-16T11:30:42;8.73;;;3.00;;
46054;SDS011;31788;6.954;-71.872;2023-05-16T11:33:15;5.73;;;3.27;;
46054;SDS011;31788;6.954;-71.872;2023-05-16T11:35:43;6.87;;;3.23;;
46054;SDS011;31788;6.954;-71.872;2023-05-16T11:38:25;8.55;;;3.22;;
46054;SDS011;31788;6.954;-71.872;2023-05-16T11:41:00;4.93;;;2.50;;
46054;SDS011;31788;6.954;-71.872;2023-05-16T11:43:28;6.63;;;2.40;;
46054;SDS011;31788;6.954;-71.872;2023-05-16T11:45:55;7.07;;;2.75;;
46054;SDS011;31788;6.954;-71.872;2023-05-16T11:48:23;4.70;;;2.17;;
46054;SDS011;31788;6.954;-71.872;2023-05-16T11:50:49;5.53;;;2.13;;
46054;SDS011;31788;6.954;-71.872;2023-05-16T11:53:18;6.00;;;2.40;;
46054;SDS011;31788;6.954;-71.872;2023-05-16T11:55:46;6.38;;;2.45;;
46054;SDS011;31788;6.954;-71.872;2023-05-16T11:58:17;8.57;;;1.98;;
46054;SDS011;31788;6.954;-71.872;2023-05-16T12:00:48;7.05;;;1.80;;
46054;SDS011;31788;6.954;-71.872;2023-05-16T12:03:16;7.10;;;2.00;;
46054;SDS011;31788;6.954;-71.872;2023-05-16T12:05:50;5.82;;;1.92;;
46054;SDS011;31788;6.954;-71.872;2023-05-16T12:08:20;5.38;;;1.40;;
46054;SDS011;31788;6.954;-71.872;2023-05-16T12:10:50;4.00;;;1.40;;
46054;SDS011;31788;6.954;-71.872;2023-05-16T12:13:21;6.95;;;1.35;;
46054;SDS011;31788;6.954;-71.872;2023-05-16T12:15:50;3.72;;;1.27;;
46054;SDS011;31788;6.954;-71.872;2023-05-16T12:18:17;5.43;;;1.15;;
46054;SDS011;31788;6.954;-71.872;2023-05-16T12:20:45;6.93;;;1.52;;
46054;SDS011;31788;6.954;-71.872;2023-05-16T12:23:12;2.30;;;1.08;;
46054;SDS011;31788;6.954;-71.872;2023-05-16T12:25:43;2.03;;;1.03;;
46054;SDS011;31788;6.954;-71.872;2023-05-16T12:28:11;2.45;;;1.13;;
46054;SDS011;31788;6.954;-71.872;2023-05-16T12:30:40;3.25;;;1.10;;
46054;SDS011;31788;6.954;-71.872;2023-05-16T12:33:11;3.35;;;1.70;;
46054;SDS011;31788;6.954;-71.872;2023-05-16T12:35:42;5.22;;;1.50;;
46054;SDS011;31788;6.954;-71.872;2023-05-16T12:38:10;6.03;;;2.10;;
46054;SDS011;31788;6.954;-71.872;2023-05-16T12:40:39;5.00;;;1.50;;
46054;SDS011;31788;6.954;-71.872;2023-05-16T12:43:40;2.92;;;1.30;;
46054;SDS011;31788;6.954;-71.872;2023-05-16T12:46:00;2.20;;;1.02;;
46054;SDS011;31788;6.954;-71.872;2023-05-16T12:48:33;3.63;;;1.30;;
46054;SDS011;31788;6.954;-71.872;2023-05-16T12:51:09;2.83;;;1.00;;
46054;SDS011;31788;6.954;-71.872;2023-05-16T12:53:43;3.83;;;1.20;;
46054;SDS011;31788;6.954;-71.872;2023-05-16T12:56:12;3.15;;;1.20;;
46054;SDS011;31788;6.954;-71.872;2023-05-16T12:58:40;4.22;;;1.30;;
46054;SDS011;31788;6.954;-71.872;2023-05-16T13:01:07;3.03;;;1.00;;
46054;SDS011;31788;6.954;-71.872;2023-05-16T13:03:34;4.70;;;1.08;;
46054;SDS011;31788;6.954;-71.872;2023-05-16T13:06:01;2.55;;;1.10;;
46054;SDS011;31788;6.954;-71.872;2023-05-16T13:08:30;3.70;;;1.05;;
46054;SDS011;31788;6.954;-71.872;2023-05-16T13:10:57;2.90;;;1.00;;
46054;SDS011;31788;6.954;-71.872;2023-05-16T13:13:23;2.92;;;1.00;;
46054;SDS011;31788;6.954;-71.872;2023-05-16T13:15:50;5.53;;;1.10;;
46054;SDS011;31788;6.954;-71.872;2023-05-16T13:18:17;7.07;;;1.30;;
46054;SDS011;31788;6.954;-71.872;2023-05-16T13:20:43;4.13;;;1.02;;
46054;SDS011;31788;6.954;-71.872;2023-05-16T13:23:10;4.93;;;1.08;;
46054;SDS011;31788;6.954;-71.872;2023-05-16T13:25:37;2.53;;;0.90;;
46054;SDS011;31788;6.954;-71.872;2023-05-16T13:28:03;5.45;;;1.17;;
46054;SDS011;31788;6.954;-71.872;2023-05-16T13:30:30;4.07;;;1.00;;
46054;SDS011;31788;6.954;-71.872;2023-05-16T13:32:57;4.25;;;1.20;;
46054;SDS011;31788;6.954;-71.872;2023-05-16T13:35:23;2.92;;;0.90;;
46054;SDS011;31788;6.954;-71.872;2023-05-16T13:37:51;2.95;;;1.00;;
46054;SDS011;31788;6.954;-71.872;2023-05-16T13:40:17;2.95;;;1.10;;
46054;SDS011;31788;6.954;-71.872;2023-05-16T13:42:44;2.55;;;1.00;;
46054;SDS011;31788;6.954;-71.872;2023-05-16T13:45:10;2.13;;;0.90;;
46054;SDS011;31788;6.954;-71.872;2023-05-16T13:47:37;5.22;;;1.10;;
46054;SDS011;31788;6.954;-71.872;2023-05-16T13:50:04;3.70;;;1.10;;
46054;SDS011;31788;6.954;-71.872;2023-05-16T13:52:34;2.85;;;0.90;;
46054;SDS011;31788;6.954;-71.872;2023-05-16T13:55:02;4.85;;;1.10;;
46054;SDS011;31788;6.954;-71.872;2023-05-16T13:57:29;2.42;;;1.00;;
46054;SDS011;31788;6.954;-71.872;2023-05-16T13:59:57;5.60;;;1.20;;
46054;SDS011;31788;6.954;-71.872;2023-05-16T14:02:24;5.80;;;1.50;;
46054;SDS011;31788;6.954;-71.872;2023-05-16T14:04:51;4.95;;;1.30;;
46054;SDS011;31788;6.954;-71.872;2023-05-16T14:07:18;2.83;;;1.40;;
46054;SDS011;31788;6.954;-71.872;2023-05-16T14:09:45;3.72;;;1.45;;
46054;SDS011;31788;6.954;-71.872;2023-05-16T14:12:12;2.97;;;1.48;;
46054;SDS011;31788;6.954;-71.872;2023-05-16T14:14:38;5.03;;;1.33;;
46054;SDS011;31788;6.954;-71.872;2023-05-16T14:17:05;3.78;;;1.17;;
46054;SDS011;31788;6.954;-71.872;2023-05-16T14:19:32;10.27;;;3.88;;
46054;SDS011;31788;6.954;-71.872;2023-05-16T14:21:58;22.17;;;10.73;;
46054;SDS011;31788;6.954;-71.872;2023-05-16T14:24:25;29.02;;;13.30;;
46054;SDS011;31788;6.954;-71.872;2023-05-16T14:26:52;35.80;;;16.92;;
46054;SDS011;31788;6.954;-71.872;2023-05-16T14:29:20;26.33;;;11.00;;
46054;SDS011;31788;6.954;-71.872;2023-05-16T14:31:47;17.73;;;7.70;;
46054;SDS011;31788;6.954;-71.872;2023-05-16T14:34:13;15.90;;;6.43;;
46054;SDS011;31788;6.954;-71.872;2023-05-16T14:36:40;12.05;;;4.50;;
46054;SDS011;31788;6.954;-71.872;2023-05-16T14:39:07;7.90;;;2.83;;
46054;SDS011;31788;6.954;-71.872;2023-05-16T14:41:34;9.77;;;3.20;;
46054;SDS011;31788;6.954;-71.872;2023-05-16T14:44:00;8.00;;;3.03;;
46054;SDS011;31788;6.954;-71.872;2023-05-16T14:46:27;8.25;;;2.40;;
46054;SDS011;31788;6.954;-71.872;2023-05-16T14:48:54;5.82;;;1.90;;
46054;SDS011;31788;6.954;-71.872;2023-05-16T14:51:21;4.50;;;1.88;;
46054;SDS011;31788;6.954;-71.872;2023-05-16T14:53:48;5.38;;;1.80;;
46054;SDS011;31788;6.954;-71.872;2023-05-16T14:56:15;9.40;;;4.40;;